sensor_id;sensor_type;location;lat;lon;timestamp;pressure;altitude;pressure_sealevel;temperature;humidity
73103;BME280;61294;65.988;29.172;2023-03-26T00:01:19;96935.53;;;-14.43;90.49
73103;BME280;61294;65.988;29.172;2023-03-26T00:03:46;96943.41;;;-14.38;90.32
73103;BME280;61294;65.988;29.172;2023-03-26T00:06:19;96879.16;;;-14.82;90.48
73103;BME280;61294;65.988;29.172;2023-03-26T00:08:47;96948.38;;;-14.53;90.81
73103;BME280;61294;65.988;29.172;2023-03-26T00:11:15;96949.81;;;-14.56;90.95
73103;BME280;61294;65.988;29.172;2023-03-26T00:13:43;96951.56;;;-14.55;90.88
73103;BME280;61294;65.988;29.172;2023-03-26T00:16:13;96954.38;;;-14.51;91.13
73103;BME280;61294;65.988;29.172;2023-03-26T00:18:53;96959.63;;;-14.48;91.51
73103;BME280;61294;65.988;29.172;2023-03-26T00:21:23;96891.19;;;-14.91;91.65
73103;BME280;61294;65.988;29.172;2023-03-26T00:23:54;96967.94;;;-14.50;92.35
73103;BME280;61294;65.988;29.172;2023-03-26T00:26:29;96967.59;;;-14.55;92.53
73103;BME280;61294;65.988;29.172;2023-03-26T00:29:04;96980.66;;;-14.49;92.55
73103;BME280;61294;65.988;29.172;2023-03-26T00:31:41;96966.66;;;-14.57;92.75
73103;BME280;61294;65.988;29.172;2023-03-26T00:34:38;96966.66;;;-14.57;92.71
73103;BME280;61294;65.988;29.172;2023-03-26T00:37:10;96971.41;;;-14.48;92.60
73103;BME280;61294;65.988;29.172;2023-03-26T00:39:43;96976.66;;;-14.59;92.03
73103;BME280;61294;65.988;29.172;2023-03-26T00:42:20;96970.44;;;-14.64;91.86
73103;BME280;61294;65.988;29.172;2023-03-26T00:44:55;96972.38;;;-14.73;92.11
73103;BME280;61294;65.988;29.172;2023-03-26T00:47:56;96952.13;;;-14.86;92.43
73103;BME280;61294;65.988;29.172;2023-03-26T00:51:00;96975.88;;;-14.71;92.23
73103;BME280;61294;65.988;29.172;2023-03-26T00:53:35;96987.09;;;-14.67;92.82
73103;BME280;61294;65.988;29.172;2023-03-26T00:58:43;96985.44;;;-14.92;91.40
73103;BME280;61294;65.988;29.172;2023-03-26T01:01:17;96972.41;;;-14.98;91.71
73103;BME280;61294;65.988;29.172;2023-03-26T01:03:54;97005.56;;;-14.94;91.71
73103;BME280;61294;65.988;29.172;2023-03-26T01:06:33;97002.72;;;-14.98;91.86
73103;BME280;61294;65.988;29.172;2023-03-26T01:09:14;97015.38;;;-14.98;92.19
73103;BME280;61294;65.988;29.172;2023-03-26T01:11:54;97012.94;;;-14.97;91.77
73103;BME280;61294;65.988;29.172;2023-03-26T01:14:24;97013.59;;;-14.99;91.54
73103;BME280;61294;65.988;29.172;2023-03-26T01:16:58;97020.53;;;-14.97;92.27
73103;BME280;61294;65.988;29.172;2023-03-26T01:19:29;97008.44;;;-15.01;92.24
73103;BME280;61294;65.988;29.172;2023-03-26T01:22:01;96994.13;;;-15.14;92.29
73103;BME280;61294;65.988;29.172;2023-03-26T01:24:31;97026.50;;;-15.08;91.71
73103;BME280;61294;65.988;29.172;2023-03-26T01:27:18;97036.59;;;-15.08;91.50
73103;BME280;61294;65.988;29.172;2023-03-26T01:36:05;97043.03;;;-15.25;91.01
73103;BME280;61294;65.988;29.172;2023-03-26T01:38:58;97052.81;;;-15.30;90.88
73103;BME280;61294;65.988;29.172;2023-03-26T01:41:40;97037.81;;;-15.40;90.72
73103;BME280;61294;65.988;29.172;2023-03-26T01:45:14;97054.47;;;-15.30;90.83
73103;BME280;61294;65.988;29.172;2023-03-26T01:47:33;97057.78;;;-15.31;90.33
73103;BME280;61294;65.988;29.172;2023-03-26T01:50:04;97050.66;;;-15.37;90.20
73103;BME280;61294;65.988;29.172;2023-03-26T01:52:36;97058.03;;;-15.40;89.48
73103;BME280;61294;65.988;29.172;2023-03-26T01:55:09;97052.19;;;-15.39;89.85
73103;BME280;61294;65.988;29.172;2023-03-26T01:57:49;97044.19;;;-15.45;89.33
73103;BME280;61294;65.988;29.172;2023-03-26T02:00:31;97010.03;;;-15.89;88.64
73103;BME280;61294;65.988;29.172;2023-03-26T02:16:59;97068.19;;;-16.11;87.13
73103;BME280;61294;65.988;29.172;2023-03-26T02:20:05;97068.09;;;-16.12;86.92
73103;BME280;61294;65.988;29.172;2023-03-26T02:23:19;97071.69;;;-16.09;87.06
73103;BME280;61294;65.988;29.172;2023-03-26T02:26:16;97078.72;;;-16.05;87.67
73103;BME280;61294;65.988;29.172;2023-03-26T02:29:27;97066.97;;;-16.16;87.40
73103;BME280;61294;65.988;29.172;2023-03-26T02:32:24;97085.53;;;-16.16;86.75
73103;BME280;61294;65.988;29.172;2023-03-26T02:34:57;97090.31;;;-16.19;86.58
73103;BME280;61294;65.988;29.172;2023-03-26T02:37:44;97095.56;;;-16.27;86.34
73103;BME280;61294;65.988;29.172;2023-03-26T02:40:21;97103.66;;;-16.43;85.51
73103;BME280;61294;65.988;29.172;2023-03-26T02:43:05;97103.00;;;-16.41;86.33
73103;BME280;61294;65.988;29.172;2023-03-26T02:45:37;97099.97;;;-16.37;86.59
73103;BME280;61294;65.988;29.172;2023-03-26T02:48:03;97110.47;;;-16.42;86.30
73103;BME280;61294;65.988;29.172;2023-03-26T02:50:32;97106.81;;;-16.46;86.80
73103;BME280;61294;65.988;29.172;2023-03-26T02:53:04;97067.66;;;-16.64;87.30
73103;BME280;61294;65.988;29.172;2023-03-26T02:55:33;97118.38;;;-16.38;88.33
73103;BME280;61294;65.988;29.172;2023-03-26T02:58:00;97110.25;;;-16.34;89.58
73103;BME280;61294;65.988;29.172;2023-03-26T03:00:29;97117.41;;;-16.28;89.59
73103;BME280;61294;65.988;29.172;2023-03-26T03:02:58;97114.88;;;-16.28;90.12
73103;BME280;61294;65.988;29.172;2023-03-26T03:05:32;97091.06;;;-16.43;90.24
73103;BME280;61294;65.988;29.172;2023-03-26T03:08:01;97115.31;;;-16.34;90.58
73103;BME280;61294;65.988;29.172;2023-03-26T03:10:37;97119.94;;;-16.28;90.65
73103;BME280;61294;65.988;29.172;2023-03-26T03:13:12;97125.84;;;-16.27;90.83
73103;BME280;61294;65.988;29.172;2023-03-26T03:15:41;97107.31;;;-16.40;91.54
73103;BME280;61294;65.988;29.172;2023-03-26T03:18:27;97078.00;;;-16.50;91.79
73103;BME280;61294;65.988;29.172;2023-03-26T03:21:05;97129.56;;;-16.34;91.36
73103;BME280;61294;65.988;29.172;2023-03-26T03:23:43;97133.94;;;-16.32;91.25
73103;BME280;61294;65.988;29.172;2023-03-26T03:26:20;97139.13;;;-16.30;91.10
73103;BME280;61294;65.988;29.172;2023-03-26T03:28:56;97135.59;;;-16.32;91.07
73103;BME280;61294;65.988;29.172;2023-03-26T03:31:45;97140.97;;;-16.27;91.63
73103;BME280;61294;65.988;29.172;2023-03-26T03:34:25;97132.50;;;-16.40;91.08
73103;BME280;61294;65.988;29.172;2023-03-26T03:37:06;97133.91;;;-16.43;91.23
73103;BME280;61294;65.988;29.172;2023-03-26T03:39:44;97115.34;;;-16.56;91.40
73103;BME280;61294;65.988;29.172;2023-03-26T03:42:21;97136.88;;;-16.37;91.98
73103;BME280;61294;65.988;29.172;2023-03-26T03:45:01;97142.72;;;-16.38;91.76
73103;BME280;61294;65.988;29.172;2023-03-26T03:47:33;97151.78;;;-16.40;91.79
73103;BME280;61294;65.988;29.172;2023-03-26T03:50:22;97138.31;;;-16.41;91.52
73103;BME280;61294;65.988;29.172;2023-03-26T03:53:00;97166.84;;;-16.30;92.02
73103;BME280;61294;65.988;29.172;2023-03-26T03:55:36;97154.09;;;-16.32;91.59
73103;BME280;61294;65.988;29.172;2023-03-26T03:58:25;97159.00;;;-16.45;91.58
73103;BME280;61294;65.988;29.172;2023-03-26T04:01:10;97160.88;;;-16.42;91.56
73103;BME280;61294;65.988;29.172;2023-03-26T04:04:20;97165.41;;;-16.38;91.57
73103;BME280;61294;65.988;29.172;2023-03-26T04:09:37;97176.22;;;-16.39;91.37
73103;BME280;61294;65.988;29.172;2023-03-26T04:12:39;97146.78;;;-16.62;91.11
73103;BME280;61294;65.988;29.172;2023-03-26T04:15:25;97165.28;;;-16.40;91.54
73103;BME280;61294;65.988;29.172;2023-03-26T04:18:00;97182.03;;;-16.40;91.26
73103;BME280;61294;65.988;29.172;2023-03-26T04:20:54;97181.09;;;-16.30;91.52
73103;BME280;61294;65.988;29.172;2023-03-26T04:23:44;97182.81;;;-16.41;90.84
73103;BME280;61294;65.988;29.172;2023-03-26T04:26:31;97167.84;;;-16.50;91.23
73103;BME280;61294;65.988;29.172;2023-03-26T04:29:13;97192.06;;;-16.30;91.74
73103;BME280;61294;65.988;29.172;2023-03-26T04:32:16;97151.22;;;-16.48;91.98
73103;BME280;61294;65.988;29.172;2023-03-26T04:35:19;97186.88;;;-16.32;91.97
73103;BME280;61294;65.988;29.172;2023-03-26T04:37:45;97199.66;;;-16.18;92.01
73103;BME280;61294;65.988;29.172;2023-03-26T04:40:14;97200.31;;;-16.21;91.89
73103;BME280;61294;65.988;29.172;2023-03-26T05:22:30;97232.44;;;-15.84;90.88
73103;BME280;61294;65.988;29.172;2023-03-26T05:25:02;97252.25;;;-15.89;90.48
73103;BME280;61294;65.988;29.172;2023-03-26T05:27:47;97256.66;;;-15.86;91.09
73103;BME280;61294;65.988;29.172;2023-03-26T05:30:21;97198.47;;;-16.11;91.59
73103;BME280;61294;65.988;29.172;2023-03-26T05:32:58;97261.03;;;-15.72;92.13
73103;BME280;61294;65.988;29.172;2023-03-26T05:35:32;97260.19;;;-15.60;93.21
73103;BME280;61294;65.988;29.172;2023-03-26T05:38:03;97260.31;;;-15.59;93.12
73103;BME280;61294;65.988;29.172;2023-03-26T05:40:33;97267.13;;;-15.58;93.80
73103;BME280;61294;65.988;29.172;2023-03-26T05:43:06;97263.72;;;-15.47;93.32
73103;BME280;61294;65.988;29.172;2023-03-26T05:45:38;97261.53;;;-15.42;93.48
73103;BME280;61294;65.988;29.172;2023-03-26T05:48:10;97250.47;;;-15.44;93.49
73103;BME280;61294;65.988;29.172;2023-03-26T05:50:51;97274.97;;;-15.31;93.72
73103;BME280;61294;65.988;29.172;2023-03-26T05:53:28;97264.09;;;-15.30;94.05
73103;BME280;61294;65.988;29.172;2023-03-26T05:56:02;97271.25;;;-15.24;93.59
73103;BME280;61294;65.988;29.172;2023-03-26T05:58:37;97275.72;;;-15.20;93.80
73103;BME280;61294;65.988;29.172;2023-03-26T06:01:21;97276.06;;;-15.04;94.12
73103;BME280;61294;65.988;29.172;2023-03-26T06:03:55;97273.66;;;-15.02;94.12
73103;BME280;61294;65.988;29.172;2023-03-26T06:06:29;97261.56;;;-15.06;94.17
73103;BME280;61294;65.988;29.172;2023-03-26T06:09:12;97279.13;;;-15.08;93.80
73103;BME280;61294;65.988;29.172;2023-03-26T06:11:39;97277.28;;;-14.87;94.94
73103;BME280;61294;65.988;29.172;2023-03-26T06:14:35;97291.22;;;-14.80;95.08
73103;BME280;61294;65.988;29.172;2023-03-26T06:17:16;97291.97;;;-14.69;95.80
73103;BME280;61294;65.988;29.172;2023-03-26T06:20:08;97278.47;;;-14.70;96.18
73103;BME280;61294;65.988;29.172;2023-03-26T06:22:53;97294.69;;;-14.54;96.73
73103;BME280;61294;65.988;29.172;2023-03-26T06:25:43;97304.34;;;-14.49;96.67
73103;BME280;61294;65.988;29.172;2023-03-26T06:31:00;97311.56;;;-14.30;96.44
73103;BME280;61294;65.988;29.172;2023-03-26T06:33:27;97268.75;;;-14.52;96.17
73103;BME280;61294;65.988;29.172;2023-03-26T06:35:53;97315.09;;;-14.28;95.89
73103;BME280;61294;65.988;29.172;2023-03-26T06:38:20;97265.63;;;-14.48;95.72
73103;BME280;61294;65.988;29.172;2023-03-26T06:40:46;97281.00;;;-14.33;96.57
73103;BME280;61294;65.988;29.172;2023-03-26T06:43:12;97282.63;;;-14.21;97.00
73103;BME280;61294;65.988;29.172;2023-03-26T06:45:38;97324.22;;;-13.93;97.18
73103;BME280;61294;65.988;29.172;2023-03-26T06:48:04;97322.88;;;-13.87;97.19
73103;BME280;61294;65.988;29.172;2023-03-26T06:50:31;97329.03;;;-13.84;97.07
73103;BME280;61294;65.988;29.172;2023-03-26T06:52:57;97335.38;;;-13.77;97.36
73103;BME280;61294;65.988;29.172;2023-03-26T06:55:23;97305.56;;;-13.81;97.40
73103;BME280;61294;65.988;29.172;2023-03-26T06:57:50;97332.44;;;-13.58;97.33
73103;BME280;61294;65.988;29.172;2023-03-26T07:00:17;97337.03;;;-13.52;97.43
73103;BME280;61294;65.988;29.172;2023-03-26T07:02:44;97326.91;;;-13.52;97.26
73103;BME280;61294;65.988;29.172;2023-03-26T07:05:10;97344.78;;;-13.38;97.04
73103;BME280;61294;65.988;29.172;2023-03-26T07:07:36;97344.59;;;-13.27;97.87
73103;BME280;61294;65.988;29.172;2023-03-26T07:10:03;97317.19;;;-13.33;97.82
73103;BME280;61294;65.988;29.172;2023-03-26T07:12:29;97333.50;;;-13.16;97.68
73103;BME280;61294;65.988;29.172;2023-03-26T07:14:55;97356.44;;;-13.01;97.54
73103;BME280;61294;65.988;29.172;2023-03-26T07:17:21;97363.06;;;-12.90;97.85
73103;BME280;61294;65.988;29.172;2023-03-26T07:19:47;97367.00;;;-12.81;97.70
73103;BME280;61294;65.988;29.172;2023-03-26T07:22:21;97364.50;;;-12.68;97.73
73103;BME280;61294;65.988;29.172;2023-03-26T07:24:48;97371.72;;;-12.61;97.28
73103;BME280;61294;65.988;29.172;2023-03-26T07:30:08;97360.78;;;-12.46;97.41
73103;BME280;61294;65.988;29.172;2023-03-26T07:32:57;97365.06;;;-12.32;96.97
73103;BME280;61294;65.988;29.172;2023-03-26T07:35:37;97373.47;;;-12.20;96.66
73103;BME280;61294;65.988;29.172;2023-03-26T07:41:23;97371.84;;;-12.04;96.23
73103;BME280;61294;65.988;29.172;2023-03-26T07:44:11;97379.53;;;-11.89;96.15
73103;BME280;61294;65.988;29.172;2023-03-26T07:46:45;97384.06;;;-11.70;96.08
73103;BME280;61294;65.988;29.172;2023-03-26T07:49:12;97380.44;;;-11.60;95.44
73103;BME280;61294;65.988;29.172;2023-03-26T07:51:39;97338.31;;;-11.85;94.72
73103;BME280;61294;65.988;29.172;2023-03-26T07:54:05;97392.31;;;-11.46;94.41
73103;BME280;61294;65.988;29.172;2023-03-26T07:56:54;97402.47;;;-11.18;93.99
73103;BME280;61294;65.988;29.172;2023-03-26T07:59:34;97375.75;;;-11.11;93.90
73103;BME280;61294;65.988;29.172;2023-03-26T08:02:28;97380.41;;;-10.89;92.93
73103;BME280;61294;65.988;29.172;2023-03-26T08:05:25;97396.81;;;-10.54;92.11
73103;BME280;61294;65.988;29.172;2023-03-26T08:08:10;97379.25;;;-10.34;91.04
73103;BME280;61294;65.988;29.172;2023-03-26T08:10:58;97387.53;;;-9.91;89.90
73103;BME280;61294;65.988;29.172;2023-03-26T08:16:15;97392.19;;;-9.19;87.02
73103;BME280;61294;65.988;29.172;2023-03-26T08:18:58;97383.22;;;-8.94;85.57
73103;BME280;61294;65.988;29.172;2023-03-26T08:21:51;97401.66;;;-8.49;83.55
73103;BME280;61294;65.988;29.172;2023-03-26T08:24:26;97399.28;;;-8.08;82.63
73103;BME280;61294;65.988;29.172;2023-03-26T08:29:41;97383.44;;;-7.46;80.52
73103;BME280;61294;65.988;29.172;2023-03-26T08:32:17;97409.19;;;-7.23;79.45
73103;BME280;61294;65.988;29.172;2023-03-26T08:34:44;97405.56;;;-6.89;78.17
73103;BME280;61294;65.988;29.172;2023-03-26T08:37:11;97380.72;;;-7.11;76.28
73103;BME280;61294;65.988;29.172;2023-03-26T08:39:37;97418.28;;;-6.71;74.29
73103;BME280;61294;65.988;29.172;2023-03-26T08:48:15;97387.31;;;-6.14;71.03
73103;BME280;61294;65.988;29.172;2023-03-26T09:02:15;97411.84;;;-3.25;65.02
73103;BME280;61294;65.988;29.172;2023-03-26T09:05:18;97412.03;;;-1.90;60.86
73103;BME280;61294;65.988;29.172;2023-03-26T09:08:53;97386.53;;;-0.05;54.79
73103;BME280;61294;65.988;29.172;2023-03-26T09:11:00;97388.53;;;9.44;40.73
73103;BME280;61294;65.988;29.172;2023-03-26T09:16:34;97388.22;;;18.07;24.05
73103;BME280;61294;65.988;29.172;2023-03-26T09:21:51;97385.69;;;16.31;21.42
73103;BME280;61294;65.988;29.172;2023-03-26T09:27:14;97388.13;;;20.20;19.28
73103;BME280;61294;65.988;29.172;2023-03-26T09:30:08;97390.03;;;20.74;17.73
73103;BME280;61294;65.988;29.172;2023-03-26T09:32:59;97383.88;;;22.78;16.62
73103;BME280;61294;65.988;29.172;2023-03-26T09:38:43;97389.75;;;16.74;16.96
73103;BME280;61294;65.988;29.172;2023-03-26T09:44:47;97384.50;;;19.78;16.67
73103;BME280;61294;65.988;29.172;2023-03-26T09:52:36;97391.63;;;23.65;14.25
73103;BME280;61294;65.988;29.172;2023-03-26T09:55:31;97387.91;;;20.65;13.39
73103;BME280;61294;65.988;29.172;2023-03-26T10:06:25;97400.03;;;24.51;11.74
73103;BME280;61294;65.988;29.172;2023-03-26T10:09:05;97384.19;;;19.39;14.32
73103;BME280;61294;65.988;29.172;2023-03-26T10:14:42;97419.47;;;6.83;21.36
73103;BME280;61294;65.988;29.172;2023-03-26T10:17:26;97439.69;;;4.58;23.19
73103;BME280;61294;65.988;29.172;2023-03-26T10:31:35;97413.69;;;2.38;26.67
73103;BME280;61294;65.988;29.172;2023-03-26T10:34:03;97437.66;;;3.23;27.08
73103;BME280;61294;65.988;29.172;2023-03-26T10:42:38;97432.78;;;13.20;17.32
73103;BME280;61294;65.988;29.172;2023-03-26T10:50:52;97434.53;;;15.28;16.34
73103;BME280;61294;65.988;29.172;2023-03-26T10:53:42;97431.63;;;16.52;16.37
73103;BME280;61294;65.988;29.172;2023-03-26T10:56:32;97441.06;;;17.31;15.10
73103;BME280;61294;65.988;29.172;2023-03-26T10:59:05;97438.81;;;19.34;14.27
73103;BME280;61294;65.988;29.172;2023-03-26T11:01:50;97440.03;;;19.58;13.86
73103;BME280;61294;65.988;29.172;2023-03-26T11:07:23;97439.91;;;16.27;15.24
73103;BME280;61294;65.988;29.172;2023-03-26T11:15:36;97453.38;;;15.43;15.80
73103;BME280;61294;65.988;29.172;2023-03-26T11:18:27;97463.16;;;7.62;20.60
73103;BME280;61294;65.988;29.172;2023-03-26T11:21:10;97454.25;;;5.67;22.13
73103;BME280;61294;65.988;29.172;2023-03-26T11:24:05;97472.84;;;2.65;25.81
73103;BME280;61294;65.988;29.172;2023-03-26T11:26:45;97469.28;;;1.66;27.69
73103;BME280;61294;65.988;29.172;2023-03-26T11:32:38;97440.53;;;4.90;25.27
73103;BME280;61294;65.988;29.172;2023-03-26T11:37:52;97468.78;;;3.09;27.40
73103;BME280;61294;65.988;29.172;2023-03-26T11:40:23;97456.69;;;7.16;24.47
73103;BME280;61294;65.988;29.172;2023-03-26T11:42:55;97462.28;;;11.96;20.52
73103;BME280;61294;65.988;29.172;2023-03-26T11:45:25;97432.88;;;14.39;18.82
73103;BME280;61294;65.988;29.172;2023-03-26T11:47:58;97438.09;;;15.07;17.39
73103;BME280;61294;65.988;29.172;2023-03-26T11:50:31;97436.00;;;14.72;17.00
73103;BME280;61294;65.988;29.172;2023-03-26T11:53:19;97467.41;;;15.24;16.56
73103;BME280;61294;65.988;29.172;2023-03-26T11:55:59;97456.31;;;17.27;15.66
73103;BME280;61294;65.988;29.172;2023-03-26T11:58:48;97448.81;;;17.18;16.27
73103;BME280;61294;65.988;29.172;2023-03-26T12:01:24;97457.56;;;18.87;15.47
73103;BME280;61294;65.988;29.172;2023-03-26T12:04:02;97457.78;;;21.29;14.01
73103;BME280;61294;65.988;29.172;2023-03-26T12:06:28;97452.31;;;20.76;14.02
73103;BME280;61294;65.988;29.172;2023-03-26T12:08:55;97462.41;;;20.15;14.31
73103;BME280;61294;65.988;29.172;2023-03-26T12:11:25;97448.78;;;20.20;13.86
73103;BME280;61294;65.988;29.172;2023-03-26T12:13:57;97470.78;;;20.52;13.42
73103;BME280;61294;65.988;29.172;2023-03-26T12:16:24;97459.16;;;18.42;14.60
73103;BME280;61294;65.988;29.172;2023-03-26T12:19:00;97469.44;;;19.42;14.63
73103;BME280;61294;65.988;29.172;2023-03-26T12:21:28;97459.28;;;21.06;13.50
73103;BME280;61294;65.988;29.172;2023-03-26T12:23:55;97462.78;;;19.49;13.73
73103;BME280;61294;65.988;29.172;2023-03-26T12:26:35;97469.28;;;17.16;14.95
73103;BME280;61294;65.988;29.172;2023-03-26T12:31:48;97485.72;;;8.98;20.66
73103;BME280;61294;65.988;29.172;2023-03-26T12:34:17;97496.66;;;7.32;23.27
73103;BME280;61294;65.988;29.172;2023-03-26T12:36:57;97497.88;;;6.97;24.12
73103;BME280;61294;65.988;29.172;2023-03-26T12:39:35;97507.28;;;7.21;23.61
73103;BME280;61294;65.988;29.172;2023-03-26T12:42:04;97468.81;;;13.75;18.43
73103;BME280;61294;65.988;29.172;2023-03-26T12:44:43;97458.91;;;15.16;17.26
73103;BME280;61294;65.988;29.172;2023-03-26T12:47:22;97483.25;;;15.89;16.49
73103;BME280;61294;65.988;29.172;2023-03-26T12:49:50;97495.09;;;14.50;17.89
73103;BME280;61294;65.988;29.172;2023-03-26T12:52:40;97495.38;;;8.37;21.13
73103;BME280;61294;65.988;29.172;2023-03-26T12:55:21;97478.78;;;4.98;25.38
73103;BME280;61294;65.988;29.172;2023-03-26T13:04:03;97502.13;;;3.78;28.22
73103;BME280;61294;65.988;29.172;2023-03-26T13:06:44;97527.41;;;4.07;27.70
73103;BME280;61294;65.988;29.172;2023-03-26T13:14:44;97515.81;;;2.26;27.79
73103;BME280;61294;65.988;29.172;2023-03-26T13:25:03;97515.41;;;1.18;32.99
73103;BME280;61294;65.988;29.172;2023-03-26T13:28:03;97527.88;;;0.86;33.25
73103;BME280;61294;65.988;29.172;2023-03-26T13:31:17;97502.53;;;0.16;32.63
73103;BME280;61294;65.988;29.172;2023-03-26T13:36:42;97517.97;;;1.83;32.08
73103;BME280;61294;65.988;29.172;2023-03-26T13:39:29;97518.31;;;3.21;30.53
73103;BME280;61294;65.988;29.172;2023-03-26T13:45:02;97501.94;;;8.07;26.48
73103;BME280;61294;65.988;29.172;2023-03-26T13:47:37;97508.94;;;10.14;23.11
73103;BME280;61294;65.988;29.172;2023-03-26T13:52:43;97481.44;;;12.61;20.38
73103;BME280;61294;65.988;29.172;2023-03-26T13:55:26;97509.72;;;12.86;20.55
73103;BME280;61294;65.988;29.172;2023-03-26T14:00:26;97511.84;;;8.52;22.55
73103;BME280;61294;65.988;29.172;2023-03-26T14:03:13;97529.25;;;4.73;25.07
73103;BME280;61294;65.988;29.172;2023-03-26T14:05:53;97498.59;;;3.65;26.98
73103;BME280;61294;65.988;29.172;2023-03-26T14:08:40;97530.25;;;2.01;30.26
73103;BME280;61294;65.988;29.172;2023-03-26T14:11:07;97525.91;;;1.28;30.78
73103;BME280;61294;65.988;29.172;2023-03-26T14:13:37;97522.63;;;0.80;31.27
73103;BME280;61294;65.988;29.172;2023-03-26T14:22:09;97484.09;;;-0.90;34.35
73103;BME280;61294;65.988;29.172;2023-03-26T14:24:56;97547.31;;;-0.75;35.10
73103;BME280;61294;65.988;29.172;2023-03-26T14:33:01;97526.22;;;-1.30;36.88
73103;BME280;61294;65.988;29.172;2023-03-26T14:41:23;97537.13;;;-1.77;37.53
73103;BME280;61294;65.988;29.172;2023-03-26T14:52:48;97544.69;;;-2.15;39.08
73103;BME280;61294;65.988;29.172;2023-03-26T14:55:46;97515.97;;;-2.29;37.84
73103;BME280;61294;65.988;29.172;2023-03-26T15:15:26;97544.13;;;-2.66;39.56
73103;BME280;61294;65.988;29.172;2023-03-26T15:32:06;97554.38;;;-3.25;42.22
73103;BME280;61294;65.988;29.172;2023-03-26T15:35:04;97560.16;;;-3.58;43.09
73103;BME280;61294;65.988;29.172;2023-03-26T15:40:35;97560.72;;;-3.67;40.43
73103;BME280;61294;65.988;29.172;2023-03-26T15:43:14;97572.41;;;-3.76;40.57
73103;BME280;61294;65.988;29.172;2023-03-26T15:45:51;97569.44;;;-3.89;42.07
73103;BME280;61294;65.988;29.172;2023-03-26T15:51:14;97556.69;;;-4.34;42.53
73103;BME280;61294;65.988;29.172;2023-03-26T15:56:59;97582.72;;;-4.25;42.06
73103;BME280;61294;65.988;29.172;2023-03-26T16:02:41;97560.81;;;-4.62;41.65
73103;BME280;61294;65.988;29.172;2023-03-26T16:05:34;97573.97;;;-4.77;42.46
73103;BME280;61294;65.988;29.172;2023-03-26T16:10:57;97582.53;;;-4.76;43.17
73103;BME280;61294;65.988;29.172;2023-03-26T16:18:35;97596.22;;;-5.21;45.89
73103;BME280;61294;65.988;29.172;2023-03-26T16:24:39;97603.47;;;-5.53;46.68
73103;BME280;61294;65.988;29.172;2023-03-26T16:29:18;97578.78;;;-5.92;46.91
73103;BME280;61294;65.988;29.172;2023-03-26T16:34:45;97603.94;;;-6.04;47.71
73103;BME280;61294;65.988;29.172;2023-03-26T16:37:33;97587.59;;;-6.26;47.51
73103;BME280;61294;65.988;29.172;2023-03-26T16:40:27;97548.84;;;-6.72;47.66
73103;BME280;61294;65.988;29.172;2023-03-26T16:45:57;97615.38;;;-6.54;48.48
73103;BME280;61294;65.988;29.172;2023-03-26T16:51:47;97599.41;;;-6.86;49.36
73103;BME280;61294;65.988;29.172;2023-03-26T16:54:38;97603.03;;;-7.01;48.74
73103;BME280;61294;65.988;29.172;2023-03-26T17:00:33;97628.75;;;-7.16;49.60
73103;BME280;61294;65.988;29.172;2023-03-26T17:03:26;97617.94;;;-7.28;49.65
73103;BME280;61294;65.988;29.172;2023-03-26T17:20:26;97631.63;;;-7.96;50.58
73103;BME280;61294;65.988;29.172;2023-03-26T17:23:23;97636.00;;;-7.94;50.51
73103;BME280;61294;65.988;29.172;2023-03-26T17:26:07;97626.69;;;-8.26;50.99
73103;BME280;61294;65.988;29.172;2023-03-26T17:31:51;97645.03;;;-8.34;51.20
73103;BME280;61294;65.988;29.172;2023-03-26T17:37:29;97618.69;;;-8.82;51.53
73103;BME280;61294;65.988;29.172;2023-03-26T17:42:37;97649.94;;;-8.86;51.80
73103;BME280;61294;65.988;29.172;2023-03-26T17:45:21;97617.44;;;-9.20;51.91
73103;BME280;61294;65.988;29.172;2023-03-26T17:48:20;97603.22;;;-9.46;51.84
73103;BME280;61294;65.988;29.172;2023-03-26T17:50:56;97666.41;;;-9.11;52.24
73103;BME280;61294;65.988;29.172;2023-03-26T17:53:31;97641.38;;;-9.33;51.87
73103;BME280;61294;65.988;29.172;2023-03-26T17:56:14;97588.84;;;-9.76;52.03
73103;BME280;61294;65.988;29.172;2023-03-26T17:58:46;97658.63;;;-9.44;52.20
73103;BME280;61294;65.988;29.172;2023-03-26T18:01:27;97659.25;;;-9.63;52.40
73103;BME280;61294;65.988;29.172;2023-03-26T18:03:59;97666.16;;;-9.75;52.47
73103;BME280;61294;65.988;29.172;2023-03-26T18:17:11;97635.66;;;-10.47;52.42
73103;BME280;61294;65.988;29.172;2023-03-26T18:19:49;97613.78;;;-11.00;51.98
73103;BME280;61294;65.988;29.172;2023-03-26T18:22:25;97704.84;;;-10.81;52.25
73103;BME280;61294;65.988;29.172;2023-03-26T18:24:58;97647.34;;;-11.19;52.41
73103;BME280;61294;65.988;29.172;2023-03-26T18:27:34;97607.84;;;-11.40;53.01
73103;BME280;61294;65.988;29.172;2023-03-26T18:30:14;97650.28;;;-11.39;52.41
73103;BME280;61294;65.988;29.172;2023-03-26T18:32:56;97617.44;;;-11.50;52.91
73103;BME280;61294;65.988;29.172;2023-03-26T18:35:25;97716.19;;;-10.89;52.92
73103;BME280;61294;65.988;29.172;2023-03-26T18:37:55;97728.13;;;-10.88;52.60
73103;BME280;61294;65.988;29.172;2023-03-26T18:40:34;97629.75;;;-11.42;52.20
73103;BME280;61294;65.988;29.172;2023-03-26T18:43:04;97716.31;;;-11.14;52.76
73103;BME280;61294;65.988;29.172;2023-03-26T18:50:38;97703.31;;;-11.71;53.00
73103;BME280;61294;65.988;29.172;2023-03-26T18:53:06;97727.97;;;-11.56;53.51
73103;BME280;61294;65.988;29.172;2023-03-26T18:55:34;97718.19;;;-11.64;52.98
73103;BME280;61294;65.988;29.172;2023-03-26T18:58:34;97722.69;;;-11.85;52.46
73103;BME280;61294;65.988;29.172;2023-03-26T19:01:05;97723.38;;;-12.01;52.36
73103;BME280;61294;65.988;29.172;2023-03-26T19:03:39;97720.41;;;-12.07;52.16
73103;BME280;61294;65.988;29.172;2023-03-26T19:06:10;97732.22;;;-12.07;52.88
73103;BME280;61294;65.988;29.172;2023-03-26T19:08:46;97628.28;;;-12.68;52.26
73103;BME280;61294;65.988;29.172;2023-03-26T19:11:15;97625.50;;;-12.71;52.50
73103;BME280;61294;65.988;29.172;2023-03-26T19:13:41;97676.28;;;-12.46;52.39